Terminal Aerodrome Forecast
Issued by NWS

Home | Current Version | Previous Version | Graphics & Text | Print | Product List | Glossary On
Versions: 1 2 3 4 5 6 7 8 9 10 11 12 13 14 15 16
000
FTUS43 KMPX 181000 AAC
TAFRWF
TAF AMD
KRWF 181037Z 1811/1906 32008KT P6SM SKC
     FM181230 32008KT P6SM BKN025
     FM181900 34004KT P6SM SCT025
     FM190000 16006KT P6SM SCT250=

USA.gov is the U.S. government's official web portal to all federal, state and local government web resources and services.